Time;durP1;ratioP1;P1;durP2;ratioP2;P2;SDS_P1;SDS_P2;PMS_P1;PMS_P2;Temp;Humidity;BMP_temperature;BMP_pressure;BME280_temperature;BME280_humidity;BME280_pressure;Samples;Min_cycle;Max_cycle;Signal;HPM_P1;HPM_P2
2023/04/30 04:22:32;;;;;;;16.70;7.13;;;;;;;10.83;100.00;100565.91;5109916;27;20391;-67
2023/04/30 04:24:58;;;;;;;10.50;5.90;;;;;;;10.83;100.00;100571.22;5108547;28;20040;-67
2023/04/30 04:27:24;;;;;;;12.85;6.40;;;;;;;10.87;100.00;100575.22;5122768;27;20068;-67
2023/04/30 04:29:50;;;;;;;12.02;6.60;;;;;;;10.85;100.00;100569.22;5122199;28;20060;-67
2023/04/30 04:32:16;;;;;;;11.93;6.35;;;;;;;10.90;100.00;100574.88;5088089;28;20093;-67
2023/04/30 04:34:42;;;;;;;12.23;5.70;;;;;;;10.90;99.65;100572.22;5121721;28;20067;-67
2023/04/30 04:37:08;;;;;;;13.40;7.78;;;;;;;10.92;98.93;100574.72;5087592;28;20080;-67
2023/04/30 04:39:36;;;;;;;14.75;6.47;;;;;;;10.93;99.08;100574.53;5122036;27;20032;-67
2023/04/30 04:42:02;;;;;;;12.93;6.68;;;;;;;10.98;98.40;100572.22;5087843;28;20040;-67
2023/04/30 04:44:28;;;;;;;13.48;6.50;;;;;;;11.00;97.97;100572.03;5087720;28;20056;-67
2023/04/30 04:46:55;;;;;;;11.88;6.07;;;;;;;10.95;98.35;100572.53;5121700;28;20048;-67
2023/04/30 04:49:21;;;;;;;11.27;5.82;;;;;;;10.91;98.20;100573.88;5087610;28;20064;-67
2023/04/30 04:51:46;;;;;;;11.85;6.32;;;;;;;10.89;98.23;100573.22;5089091;28;20482;-67
2023/04/30 04:54:12;;;;;;;13.50;6.20;;;;;;;10.96;98.24;100576.88;5121878;28;20040;-67
2023/04/30 04:56:38;;;;;;;10.48;5.70;;;;;;;11.01;97.04;100579.03;5121510;27;20413;-67
2023/04/30 04:59:03;;;;;;;11.40;5.93;;;;;;;11.09;96.89;100582.53;5088518;28;20043;-67
2023/04/30 05:01:29;;;;;;;11.82;6.25;;;;;;;11.06;96.61;100574.88;5088778;28;20079;-67
2023/04/30 05:03:55;;;;;;;11.35;7.05;;;;;;;11.09;96.40;100585.22;5088930;28;20757;-67
2023/04/30 05:06:20;;;;;;;11.60;6.20;;;;;;;11.08;96.18;100577.34;5088615;28;20119;-67
2023/04/30 05:08:46;;;;;;;17.58;8.60;;;;;;;11.13;96.62;100581.19;5086557;28;20028;-67
2023/04/30 05:11:11;;;;;;;15.02;8.13;;;;;;;11.18;96.81;100583.34;5087363;28;20028;-67
2023/04/30 05:13:37;;;;;;;14.55;7.15;;;;;;;11.21;96.04;100582.16;5088410;28;20051;-67
2023/04/30 05:16:03;;;;;;;12.00;6.78;;;;;;;11.17;96.10;100591.53;5104215;28;20052;-67
2023/04/30 05:18:28;;;;;;;13.20;6.95;;;;;;;11.11;96.11;100577.84;5088372;28;20618;-67
2023/04/30 05:20:53;;;;;;;11.70;6.45;;;;;;;11.14;96.11;100580.19;5088278;28;20045;-67
2023/04/30 05:23:19;;;;;;;14.23;6.60;;;;;;;11.09;96.31;100576.38;5088469;28;20044;-67
2023/04/30 05:25:45;;;;;;;10.00;6.40;;;;;;;11.14;96.58;100590.00;5088282;28;20094;-65
2023/04/30 05:28:10;;;;;;;11.93;6.40;;;;;;;11.21;96.48;100592.84;5087985;28;20040;-67
2023/04/30 05:30:36;;;;;;;10.55;5.80;;;;;;;11.22;95.92;100582.03;5121145;28;20089;-66
2023/04/30 05:33:02;;;;;;;14.23;7.25;;;;;;;11.22;96.29;100590.03;5078439;28;20075;-66
2023/04/30 05:35:29;;;;;;;11.00;6.75;;;;;;;11.22;95.64;100591.84;5073354;28;20107;-66
2023/04/30 05:37:54;;;;;;;13.35;6.32;;;;;;;11.23;96.45;100589.00;5074390;28;20090;-66
2023/04/30 05:40:20;;;;;;;10.35;5.70;;;;;;;11.15;96.08;100591.69;5074490;28;20040;-66
2023/04/30 05:42:45;;;;;;;12.77;5.65;;;;;;;11.19;95.90;100577.00;5074467;28;20028;-66
2023/04/30 05:45:13;;;;;;;11.05;4.90;;;;;;;11.29;96.13;100591.00;5074598;28;20402;-66
2023/04/30 05:47:39;;;;;;;;;;;;;;;11.39;95.51;100588.13;5074581;28;20150;-67
2023/04/30 05:50:05;;;;;;;12.80;6.00;;;;;;;11.45;95.69;100594.63;5074255;28;20022;-66
2023/04/30 05:52:31;;;;;;;10.15;5.93;;;;;;;11.40;95.05;100585.28;5074053;28;20040;-67
2023/04/30 05:54:56;;;;;;;10.60;5.72;;;;;;;11.52;95.04;100588.44;5073176;28;20044;-63
2023/04/30 05:57:22;;;;;;;10.75;5.45;;;;;;;11.58;94.56;100595.75;5073830;28;20040;-58
2023/04/30 05:59:47;;;;;;;8.10;5.20;;;;;;;11.58;94.41;100589.59;5074315;28;20040;-59
2023/04/30 06:02:12;;;;;;;11.38;5.93;;;;;;;11.63;94.11;100590.75;5074343;28;20067;-63
2023/04/30 06:04:38;;;;;;;10.43;5.30;;;;;;;11.67;93.67;100594.75;5074107;28;20533;-59
2023/04/30 06:07:03;;;;;;;10.45;5.82;;;;;;;11.83;92.70;100601.06;5073820;28;20044;-61
2023/04/30 06:09:29;;;;;;;12.10;5.60;;;;;;;11.75;92.25;100574.38;5074038;28;20043;-59
2023/04/30 06:11:54;;;;;;;9.27;5.57;;;;;;;12.00;91.37;100596.47;5073721;28;20047;-58
2023/04/30 06:14:21;;;;;;;10.93;6.70;;;;;;;12.12;90.67;100595.91;5073913;28;20044;-58
2023/04/30 06:16:47;;;;;;;13.57;6.87;;;;;;;12.26;89.58;100586.34;5073696;28;20044;-57
2023/04/30 06:19:12;;;;;;;14.18;6.55;;;;;;;12.27;89.02;100584.50;5073612;28;20377;-60
2023/04/30 06:21:38;;;;;;;9.15;6.07;;;;;;;12.40;88.38;100585.59;5073634;28;20097;-60
2023/04/30 06:24:04;;;;;;;9.88;6.15;;;;;;;12.41;88.74;100583.75;5073851;28;20129;-56
2023/04/30 06:26:29;;;;;;;10.07;6.00;;;;;;;12.51;89.64;100592.34;5073590;28;20094;-58
2023/04/30 06:28:55;;;;;;;8.00;5.15;;;;;;;12.50;88.76;100594.19;5073349;28;20043;-58
2023/04/30 06:31:21;;;;;;;9.20;5.78;;;;;;;12.62;88.98;100594.59;5073729;28;20045;-60
2023/04/30 06:33:46;;;;;;;12.32;7.00;;;;;;;12.68;86.47;100599.25;5073615;28;20036;-58
2023/04/30 06:36:12;;;;;;;11.27;5.43;;;;;;;12.81;84.90;100589.78;5072230;28;20082;-60
2023/04/30 06:38:37;;;;;;;11.68;5.95;;;;;;;12.90;83.07;100594.06;5073190;28;20437;-58
2023/04/30 06:41:03;;;;;;;9.43;5.97;;;;;;;12.90;82.84;100589.53;5073411;28;20033;-60
2023/04/30 06:43:28;;;;;;;12.13;6.00;;;;;;;12.87;83.77;100579.22;5073117;28;20078;-59
2023/04/30 06:45:53;;;;;;;7.88;5.35;;;;;;;12.99;83.13;100587.66;5072613;28;20044;-54
2023/04/30 06:48:19;;;;;;;9.25;5.97;;;;;;;12.89;83.84;100589.72;5073027;28;20063;-58
2023/04/30 06:50:44;;;;;;;12.02;5.47;;;;;;;12.88;84.52;100574.69;5073348;28;20124;-61
2023/04/30 06:53:11;;;;;;;8.70;5.43;;;;;;;13.07;84.37;100589.41;5073317;28;20068;-62
2023/04/30 06:55:36;;;;;;;11.10;5.60;;;;;;;13.16;82.47;100589.13;5072975;28;20036;-61
2023/04/30 06:58:02;;;;;;;8.63;6.18;;;;;;;13.27;82.42;100590.59;5072924;28;20036;-58
2023/04/30 07:00:27;;;;;;;10.02;6.13;;;;;;;13.47;81.31;100591.72;5073509;28;20052;-63
2023/04/30 07:02:53;;;;;;;10.02;5.65;;;;;;;13.46;79.98;100594.56;5074385;28;20123;-61
2023/04/30 07:05:18;;;;;;;7.95;5.53;;;;;;;13.45;79.70;100590.25;5073940;28;20044;-59
2023/04/30 07:07:44;;;;;;;8.48;4.75;;;;;;;13.39;82.87;100593.66;5085162;28;20044;-58
2023/04/30 07:10:09;;;;;;;8.63;5.75;;;;;;;13.52;80.82;100593.84;5083016;28;20040;-62
2023/04/30 07:12:34;;;;;;;10.80;5.50;;;;;;;13.57;82.03;100596.81;5084555;28;20040;-54
2023/04/30 07:15:00;;;;;;;7.97;5.05;;;;;;;13.77;81.99;100584.53;5075931;28;20420;-56
2023/04/30 07:17:25;;;;;;;9.60;6.07;;;;;;;13.80;81.41;100583.31;5088134;28;20070;-56
2023/04/30 07:19:51;;;;;;;8.57;5.25;;;;;;;13.87;79.59;100588.75;5079553;28;20044;-62
2023/04/30 07:22:16;;;;;;;8.55;5.50;;;;;;;13.87;75.69;100583.38;5081806;28;20462;-58
2023/04/30 07:24:41;;;;;;;8.63;5.53;;;;;;;13.77;79.10;100587.19;5086676;28;20024;-58
2023/04/30 07:27:07;;;;;;;7.60;4.45;;;;;;;13.99;76.78;100576.53;5079053;28;20048;-63
2023/04/30 07:29:34;;;;;;;9.00;5.90;;;;;;;13.96;77.04;100579.63;5085469;28;20084;-59
2023/04/30 07:31:59;;;;;;;9.18;5.05;;;;;;;14.02;77.19;100586.91;5087086;28;20484;-60
2023/04/30 07:34:25;;;;;;;8.60;5.20;;;;;;;14.06;76.99;100570.25;5092726;28;20039;-59
2023/04/30 07:36:51;;;;;;;7.72;5.28;;;;;;;14.04;76.93;100579.50;5072503;28;20619;-60
2023/04/30 07:39:16;;;;;;;8.20;5.03;;;;;;;14.24;74.94;100579.72;5071806;28;20041;-60
2023/04/30 07:41:42;;;;;;;6.82;4.85;;;;;;;14.28;73.08;100573.81;5072272;28;20040;-61
2023/04/30 07:44:07;;;;;;;7.05;4.88;;;;;;;14.40;73.91;100577.63;5072256;28;20040;-63
2023/04/30 07:46:33;;;;;;;8.60;4.85;;;;;;;14.33;74.10;100567.88;5072225;28;20055;-61
2023/04/30 07:48:59;;;;;;;10.38;5.45;;;;;;;14.29;73.17;100572.78;5071919;28;20136;-60
2023/04/30 07:51:25;;;;;;;7.57;4.97;;;;;;;14.40;74.16;100574.94;5071713;28;20119;-62
2023/04/30 07:53:52;;;;;;;7.07;4.50;;;;;;;14.50;71.60;100571.19;5069203;28;20040;-61
2023/04/30 07:56:17;;;;;;;5.32;4.40;;;;;;;14.56;72.74;100570.41;5071826;28;20127;-60
2023/04/30 07:58:43;;;;;;;7.25;4.78;;;;;;;14.57;68.77;100569.38;5071803;28;20112;-65
2023/04/30 08:01:08;;;;;;;6.75;4.20;;;;;;;14.47;69.09;100564.31;5072110;28;20539;-61
2023/04/30 08:03:33;;;;;;;6.05;4.18;;;;;;;14.45;69.55;100566.34;5072071;28;20044;-61
2023/04/30 08:05:59;;;;;;;8.57;4.13;;;;;;;14.48;71.01;100570.53;5072039;28;20033;-63
2023/04/30 08:08:24;;;;;;;5.10;4.25;;;;;;;14.48;71.58;100565.19;5071704;28;20070;-63
2023/04/30 08:10:50;;;;;;;6.03;4.07;;;;;;;14.61;69.33;100568.00;5071761;28;20416;-60
2023/04/30 08:13:15;;;;;;;5.97;4.30;;;;;;;14.70;67.99;100563.31;5072038;28;20085;-61
2023/04/30 08:15:41;;;;;;;4.43;3.20;;;;;;;14.80;68.33;100572.72;5071820;28;20036;-61
2023/04/30 08:18:08;;;;;;;5.85;4.43;;;;;;;14.98;64.38;100572.22;5071388;28;20044;-63
2023/04/30 08:20:33;;;;;;;5.38;3.85;;;;;;;14.93;66.71;100571.97;5071847;28;20050;-62
2023/04/30 08:22:59;;;;;;;9.68;4.45;;;;;;;14.90;68.12;100567.84;5071925;28;20409;-60
2023/04/30 08:25:24;;;;;;;6.07;4.28;;;;;;;15.09;66.99;100570.88;5071586;28;20119;-63
2023/04/30 08:27:50;;;;;;;4.82;3.70;;;;;;;15.13;64.80;100581.03;5070268;28;20032;-61
2023/04/30 08:30:15;;;;;;;6.82;4.25;;;;;;;15.05;65.39;100572.28;5071846;28;20044;-61
2023/04/30 08:32:41;;;;;;;6.38;3.47;;;;;;;15.14;64.95;100568.44;5071662;28;20519;-62
2023/04/30 08:35:08;;;;;;;4.78;3.40;;;;;;;15.14;65.80;100571.94;5071561;28;20065;-65
2023/04/30 08:37:33;;;;;;;4.53;3.28;;;;;;;15.25;65.19;100588.53;5071425;28;20119;-63
2023/04/30 08:39:59;;;;;;;5.50;3.50;;;;;;;15.36;62.74;100575.41;5071518;28;20120;-60
2023/04/30 08:42:29;;;;;;;4.68;3.50;;;;;;;15.50;61.07;100580.84;5071714;28;20040;-62
2023/04/30 08:44:55;;;;;;;3.97;3.28;;;;;;;15.65;60.88;100569.00;5071646;28;20043;-64
2023/04/30 08:47:21;;;;;;;4.53;2.88;;;;;;;15.75;60.91;100568.63;5071234;28;20111;-61
2023/04/30 08:49:47;;;;;;;6.38;3.58;;;;;;;15.67;59.82;100579.56;5071545;28;20031;-61
2023/04/30 08:52:13;;;;;;;6.55;3.50;;;;;;;15.63;59.16;100583.66;5071514;28;20394;-59
2023/04/30 08:54:39;;;;;;;3.72;3.05;;;;;;;15.73;58.14;100578.75;5071467;28;20036;-60
2023/04/30 08:57:04;;;;;;;4.30;3.55;;;;;;;15.82;57.32;100582.91;5071211;28;20551;-60
2023/04/30 08:59:30;;;;;;;4.97;3.45;;;;;;;15.82;57.74;100576.72;5071493;28;20031;-60
2023/04/30 09:01:55;;;;;;;5.65;3.67;;;;;;;15.60;58.07;100573.28;5071462;28;20071;-61
2023/04/30 09:04:21;;;;;;;3.33;2.88;;;;;;;15.82;58.06;100580.22;5071489;28;20037;-61
2023/04/30 09:06:46;;;;;;;3.70;2.90;;;;;;;15.84;56.91;100574.66;5071197;28;20039;-61
2023/04/30 09:09:13;;;;;;;5.50;2.92;;;;;;;15.84;57.11;100580.84;5074584;28;20116;-60
2023/04/30 09:11:40;;;;;;;3.92;3.15;;;;;;;15.53;57.25;100581.31;5075084;28;20474;-60
2023/04/30 09:14:06;;;;;;;4.00;2.90;;;;;;;15.74;56.95;100565.13;5075078;28;20086;-62
2023/04/30 09:16:49;;;;;;;5.22;3.22;;;;;;;15.70;57.84;100569.22;5074936;28;20060;-63
2023/04/30 09:19:29;;;;;;;3.92;2.70;;;;;;;15.69;57.53;100566.75;5074889;28;20485;-60
2023/04/30 09:21:55;;;;;;;3.80;3.03;;;;;;;15.63;58.98;100567.53;5075092;28;20367;-61
2023/04/30 09:24:20;;;;;;;5.13;3.03;;;;;;;15.35;61.32;100579.13;5074955;28;20039;-58
2023/04/30 09:26:47;;;;;;;6.55;3.95;;;;;;;15.28;61.60;100569.38;5074790;28;20093;-58
2023/04/30 09:29:13;;;;;;;4.38;3.35;;;;;;;15.53;61.83;100577.78;5074647;28;20028;-61
2023/04/30 09:31:41;;;;;;;4.80;3.83;;;;;;;15.37;62.20;100570.84;5074701;28;20131;-62
2023/04/30 09:34:06;;;;;;;4.10;3.28;;;;;;;15.39;62.37;100572.34;5074555;28;20036;-62
2023/04/30 09:36:33;;;;;;;5.45;3.63;;;;;;;15.31;62.12;100558.22;5073454;28;20039;-61
2023/04/30 09:39:12;;;;;;;4.25;3.28;;;;;;;15.51;63.52;100569.09;5074363;28;20149;-59
2023/04/30 09:41:38;;;;;;;5.57;3.20;;;;;;;15.69;61.71;100572.13;5074775;28;20033;-59
2023/04/30 09:44:03;;;;;;;3.80;2.72;;;;;;;15.95;61.38;100574.09;5074504;28;20124;-62
2023/04/30 09:46:31;;;;;;;3.70;2.60;;;;;;;16.20;55.98;100560.97;5074434;28;20048;-62
2023/04/30 09:48:58;;;;;;;2.95;2.35;;;;;;;16.35;55.87;100560.78;5074190;28;20051;-61
2023/04/30 09:51:25;;;;;;;3.47;2.78;;;;;;;16.27;55.71;100562.63;5074373;28;20064;-59
2023/04/30 09:53:51;;;;;;;4.25;2.38;;;;;;;16.50;55.79;100564.16;5074464;28;20047;-63
2023/04/30 09:56:22;;;;;;;3.80;2.65;;;;;;;16.82;54.86;100562.53;5074321;28;20400;-61
2023/04/30 09:58:52;;;;;;;2.83;2.22;;;;;;;16.77;55.10;100562.34;5074076;28;20460;-61
2023/04/30 10:01:25;;;;;;;6.97;2.75;;;;;;;16.78;55.45;100564.00;5074281;28;20064;-59
2023/04/30 10:03:51;;;;;;;3.10;2.17;;;;;;;16.61;56.61;100558.16;5074184;28;20036;-59
2023/04/30 10:06:19;;;;;;;3.33;2.30;;;;;;;16.30;55.87;100556.03;5074003;28;20028;-60
2023/04/30 10:08:50;;;;;;;;;;;;;;;16.62;55.02;100562.47;5074230;28;20045;-62
2023/04/30 10:11:20;;;;;;;3.95;2.53;;;;;;;16.92;53.40;100565.66;5074040;28;19921;-59
2023/04/30 10:13:53;;;;;;;2.97;1.85;;;;;;;17.01;51.22;100564.41;5073946;28;20546;-61
2023/04/30 10:16:27;;;;;;;2.33;1.80;;;;;;;16.97;51.57;100559.66;5074109;28;20433;-61
2023/04/30 10:18:55;;;;;;;2.28;1.70;;;;;;;16.92;50.20;100559.44;5073570;28;20043;-59
2023/04/30 10:21:23;;;;;;;2.25;1.90;;;;;;;17.19;50.08;100558.38;5072518;28;20508;-62
2023/04/30 10:23:50;;;;;;;2.63;1.90;;;;;;;17.53;49.89;100562.66;5073806;28;20041;-60
2023/04/30 10:26:16;;;;;;;2.88;1.92;;;;;;;17.74;48.56;100550.03;5073448;28;20045;-59
2023/04/30 10:28:42;;;;;;;3.92;2.13;;;;;;;17.86;47.03;100551.81;5073424;28;20032;-63
2023/04/30 10:31:11;;;;;;;2.30;1.80;;;;;;;17.89;47.09;100547.88;5073623;28;20090;-62
2023/04/30 10:33:50;;;;;;;3.00;1.73;;;;;;;17.73;46.80;100532.19;5073809;28;20039;-60
2023/04/30 10:36:32;;;;;;;1.85;1.50;;;;;;;17.53;47.70;100530.34;5073477;28;20669;-60
2023/04/30 10:38:59;;;;;;;1.88;1.67;;;;;;;17.58;48.92;100535.09;5073144;28;20059;-62
2023/04/30 10:41:26;;;;;;;2.13;1.70;;;;;;;17.58;47.39;100524.34;5073496;28;20032;-63
2023/04/30 10:43:56;;;;;;;2.57;1.80;;;;;;;17.68;46.71;100522.03;5073357;28;20052;-61
2023/04/30 10:46:22;;;;;;;6.05;1.60;;;;;;;17.69;46.99;100521.00;5073379;28;20286;-61
2023/04/30 10:48:49;;;;;;;2.75;1.92;;;;;;;17.59;46.86;100505.25;5073085;28;20081;-59
2023/04/30 10:51:14;;;;;;;1.70;1.60;;;;;;;17.73;46.29;100521.41;5073069;28;20067;-60
2023/04/30 10:53:41;;;;;;;3.17;1.88;;;;;;;17.58;46.31;100513.56;5073144;28;20040;-61
2023/04/30 10:56:07;;;;;;;2.58;1.73;;;;;;;17.80;46.84;100522.19;5073088;28;20562;-62
2023/04/30 10:58:35;;;;;;;2.00;1.33;;;;;;;18.04;46.26;100518.78;5072809;28;20036;-61
2023/04/30 11:01:16;;;;;;;2.47;1.70;;;;;;;17.95;46.46;100522.78;5073064;28;20041;-60
2023/04/30 11:04:02;;;;;;;2.88;1.73;;;;;;;17.92;45.40;100527.75;5072939;28;20043;-61
2023/04/30 11:06:49;;;;;;;2.50;1.88;;;;;;;17.94;44.52;100510.34;5072732;28;20051;-62
2023/04/30 11:09:14;;;;;;;1.95;1.52;;;;;;;18.09;44.68;100510.88;5072796;28;20041;-61
2023/04/30 11:11:40;;;;;;;2.30;1.70;;;;;;;17.87;45.29;100517.63;5072783;28;20046;-58
2023/04/30 11:14:05;;;;;;;2.10;1.90;;;;;;;17.95;44.88;100512.00;5072757;28;20040;-62
2023/04/30 11:16:34;;;;;;;1.77;1.48;;;;;;;18.12;45.03;100512.31;5072711;28;20468;-60
2023/04/30 11:19:10;;;;;;;2.10;1.55;;;;;;;17.89;44.06;100510.16;5072413;28;20040;-62
2023/04/30 11:22:02;;;;;;;2.43;1.53;;;;;;;18.04;43.32;100508.00;5072391;28;20044;-61
2023/04/30 11:24:58;;;;;;;2.67;1.50;;;;;;;18.29;45.19;100509.94;5063337;28;20051;-60
2023/04/30 11:27:25;;;;;;;1.95;1.30;;;;;;;18.70;42.60;100493.25;5072175;28;20401;-63
2023/04/30 11:29:52;;;;;;;1.73;1.42;;;;;;;18.62;43.61;100502.44;5072237;28;20074;-60
2023/04/30 11:32:20;;;;;;;1.90;1.23;;;;;;;18.23;43.42;100500.00;5072309;28;20070;-62
2023/04/30 11:34:46;;;;;;;1.60;1.50;;;;;;;18.12;43.11;100496.13;5072407;28;20068;-60
2023/04/30 11:37:17;;;;;;;2.38;1.40;;;;;;;18.15;43.60;100490.31;5072030;28;20036;-60
2023/04/30 11:39:43;;;;;;;1.80;1.50;;;;;;;18.53;41.44;100495.66;5072453;28;20037;-61
2023/04/30 11:42:09;;;;;;;1.55;1.20;;;;;;;18.85;42.00;100493.78;5072418;28;20024;-58
2023/04/30 11:44:34;;;;;;;6.80;4.70;;;;;;;18.75;42.04;100479.94;5071170;28;20451;-60
2023/04/30 11:47:00;;;;;;;3.75;1.83;;;;;;;19.00;41.82;100482.63;5071974;28;20386;-60
2023/04/30 11:49:26;;;;;;;1.40;1.20;;;;;;;19.25;40.98;100486.09;5072118;28;20071;-61
2023/04/30 11:51:52;;;;;;;1.10;1.00;;;;;;;18.88;40.96;100479.00;5072204;28;20048;-62
2023/04/30 11:54:18;;;;;;;1.35;1.10;;;;;;;18.60;41.34;100480.25;5072199;28;20044;-63
2023/04/30 11:56:47;;;;;;;1.50;1.40;;;;;;;18.86;41.96;100473.81;5071891;28;20515;-63
2023/04/30 11:59:14;;;;;;;1.85;1.30;;;;;;;19.04;41.41;100475.75;5065557;28;20040;-61
2023/04/30 12:01:40;;;;;;;1.45;1.05;;;;;;;18.60;41.25;100474.84;5072018;28;20033;-60
2023/04/30 12:04:07;;;;;;;1.15;1.05;;;;;;;19.14;40.37;100481.44;5071832;28;20044;-61
2023/04/30 12:06:33;;;;;;;1.45;1.20;;;;;;;19.28;40.28;100475.88;5072071;28;20038;-62
2023/04/30 12:09:02;;;;;;;0.95;0.90;;;;;;;19.04;41.15;100467.63;5071240;28;20041;-62
2023/04/30 12:11:29;;;;;;;2.63;1.30;;;;;;;20.13;40.40;100474.00;5072096;28;20405;-60
2023/04/30 12:13:59;;;;;;;1.55;1.30;;;;;;;19.95;38.63;100476.75;5071843;28;20112;-62
2023/04/30 12:16:27;;;;;;;1.65;1.27;;;;;;;19.47;39.05;100475.66;5071879;28;20432;-62
2023/04/30 12:18:53;;;;;;;1.80;1.40;;;;;;;19.70;39.75;100468.78;5070923;28;20103;-58
2023/04/30 12:21:21;;;;;;;2.00;1.33;;;;;;;19.57;39.12;100467.03;5071891;28;20036;-59
2023/04/30 12:23:46;;;;;;;3.13;2.08;;;;;;;19.52;40.09;100472.28;5071449;28;20020;-58
2023/04/30 12:26:12;;;;;;;2.45;1.70;;;;;;;19.74;39.97;100461.84;5067719;28;20385;-62
2023/04/30 12:28:38;;;;;;;1.67;1.40;;;;;;;19.60;39.96;100461.19;5070291;28;20069;-62
2023/04/30 12:31:03;;;;;;;2.05;1.55;;;;;;;19.80;39.68;100452.81;5061884;28;20035;-64
2023/04/30 12:33:30;;;;;;;2.30;1.70;;;;;;;19.48;40.15;100460.28;5068263;28;20048;-61
2023/04/30 12:35:59;;;;;;;1.60;1.40;;;;;;;19.43;41.12;100457.41;5070368;28;20032;-63
2023/04/30 12:38:24;;;;;;;1.80;1.52;;;;;;;19.22;41.76;100456.00;5069364;28;20087;-62
2023/04/30 12:40:50;;;;;;;3.03;1.50;;;;;;;18.96;42.29;100454.41;5066811;28;20553;-60
2023/04/30 12:43:17;;;;;;;2.20;1.58;;;;;;;17.97;43.79;100444.41;5073750;28;20072;-62
2023/04/30 12:45:50;;;;;;;2.20;1.60;;;;;;;18.84;42.86;100461.59;5075690;28;20063;-59
2023/04/30 12:48:17;;;;;;;1.98;1.45;;;;;;;18.23;43.21;100459.56;5074802;28;20028;-60
2023/04/30 12:50:54;;;;;;;2.15;1.60;;;;;;;18.28;43.85;100462.44;5075537;28;20045;-60
2023/04/30 12:53:20;;;;;;;2.20;1.47;;;;;;;18.06;44.22;100456.56;5075669;28;20450;-60
2023/04/30 12:56:11;;;;;;;1.38;1.27;;;;;;;18.59;43.08;100457.03;5075486;28;20028;-62
2023/04/30 12:58:38;;;;;;;1.33;1.20;;;;;;;18.59;42.67;100454.31;5074471;28;20040;-60
2023/04/30 13:01:04;;;;;;;1.50;1.30;;;;;;;18.51;42.69;100440.28;5075447;28;20090;-59
2023/04/30 13:03:29;;;;;;;1.70;1.40;;;;;;;18.67;40.91;100443.28;5075561;28;20412;-58
2023/04/30 13:05:54;;;;;;;1.50;1.30;;;;;;;18.46;41.80;100446.34;5073991;28;20036;-59
2023/04/30 13:08:20;;;;;;;1.85;1.35;;;;;;;18.60;41.53;100444.34;5074535;28;20397;-62
2023/04/30 13:10:47;;;;;;;2.17;1.50;;;;;;;18.83;40.65;100451.84;5075001;28;20389;-59
2023/04/30 13:13:14;;;;;;;1.87;1.47;;;;;;;18.95;41.29;100444.66;5075165;28;20040;-62
2023/04/30 13:15:41;;;;;;;1.80;1.70;;;;;;;19.10;41.14;100442.41;5066311;28;20748;-62
2023/04/30 13:18:10;;;;;;;2.25;1.50;;;;;;;19.20;41.25;100444.63;5054233;28;20124;-62
2023/04/30 13:20:37;;;;;;;2.20;1.70;;;;;;;19.13;40.30;100430.38;5054911;28;20047;-61
2023/04/30 13:23:03;;;;;;;2.60;1.47;;;;;;;18.95;40.73;100428.47;5054952;28;20490;-62
2023/04/30 13:25:29;;;;;;;2.55;1.70;;;;;;;18.94;41.65;100435.75;5054820;28;20056;-62
2023/04/30 13:27:55;;;;;;;3.05;1.80;;;;;;;19.01;42.12;100429.47;5053763;28;20044;-61
2023/04/30 13:30:22;;;;;;;1.77;1.40;;;;;;;19.28;40.23;100429.97;5054787;28;20045;-62
2023/04/30 13:32:47;;;;;;;2.08;1.63;;;;;;;19.15;39.79;100429.06;5054662;28;20037;-62
2023/04/30 13:35:13;;;;;;;2.00;1.77;;;;;;;19.24;40.84;100427.75;5054589;28;20512;-62
2023/04/30 13:37:38;;;;;;;2.13;1.35;;;;;;;19.37;40.49;100428.63;5054376;28;20033;-60
2023/04/30 13:40:09;;;;;;;2.00;1.52;;;;;;;19.38;41.78;100414.91;5054684;28;20485;-62
2023/04/30 13:42:38;;;;;;;1.48;1.38;;;;;;;19.49;40.33;100407.88;5054611;28;20032;-60
2023/04/30 13:45:07;;;;;;;2.05;1.63;;;;;;;19.40;39.33;100399.28;5054571;28;20037;-65
2023/04/30 13:47:32;;;;;;;2.30;1.73;;;;;;;19.57;39.36;100404.06;5054296;28;20044;-59
2023/04/30 13:49:58;;;;;;;2.42;1.88;;;;;;;19.30;40.20;100411.66;5054479;28;20398;-61
2023/04/30 13:52:24;;;;;;;1.60;1.42;;;;;;;19.35;39.75;100407.25;5054021;28;20083;-62
2023/04/30 13:54:50;;;;;;;2.00;1.52;;;;;;;19.43;39.41;100403.41;5052569;28;20095;-62
2023/04/30 13:57:15;;;;;;;1.55;1.45;;;;;;;19.54;39.18;100399.94;5053808;28;20037;-62
2023/04/30 13:59:41;;;;;;;1.77;1.30;;;;;;;19.24;39.37;100399.91;5054277;28;20048;-60
2023/04/30 14:02:06;;;;;;;1.85;1.42;;;;;;;19.37;39.98;100388.94;5054155;28;20065;-61
2023/04/30 14:04:32;;;;;;;2.30;1.60;;;;;;;19.07;40.27;100369.16;5054158;28;20116;-61
2023/04/30 14:06:57;;;;;;;1.38;1.25;;;;;;;19.42;39.52;100382.84;5053715;28;20044;-61
2023/04/30 14:09:23;;;;;;;1.63;1.40;;;;;;;19.05;40.71;100385.59;5054084;28;20116;-61
2023/04/30 14:11:48;;;;;;;1.50;1.40;;;;;;;19.48;40.14;100396.25;5054131;28;20033;-62
2023/04/30 14:14:14;;;;;;;2.08;1.55;;;;;;;19.43;38.91;100392.59;5054041;28;20490;-62
2023/04/30 14:16:39;;;;;;;1.50;1.30;;;;;;;19.31;39.38;100392.56;5053788;28;20442;-62
2023/04/30 14:19:05;;;;;;;1.65;1.30;;;;;;;19.32;39.42;100390.69;5053678;28;20037;-61
2023/04/30 14:21:32;;;;;;;2.53;1.50;;;;;;;19.29;39.85;100380.31;5054008;28;20037;-62
2023/04/30 14:23:57;;;;;;;1.93;1.40;;;;;;;19.32;39.83;100377.19;5053845;28;20418;-61
2023/04/30 14:26:23;;;;;;;1.88;1.45;;;;;;;19.07;40.67;100371.88;5053789;28;20033;-60
2023/04/30 14:28:48;;;;;;;1.80;1.50;;;;;;;19.23;40.61;100379.34;5053432;28;20036;-61
2023/04/30 14:31:14;;;;;;;2.20;1.67;;;;;;;19.05;40.04;100373.97;5053546;28;20559;-63
2023/04/30 14:33:40;;;;;;;1.52;1.30;;;;;;;18.94;41.02;100376.38;5053618;28;20146;-62
2023/04/30 14:36:06;;;;;;;2.10;1.50;;;;;;;19.19;40.49;100367.38;5053422;28;20083;-62
2023/04/30 14:38:32;;;;;;;2.58;1.70;;;;;;;19.23;39.94;100365.84;5053300;28;20041;-60
2023/04/30 14:40:57;;;;;;;1.52;1.40;;;;;;;18.98;40.61;100352.47;5053488;28;20044;-62
2023/04/30 14:43:23;;;;;;;1.38;1.27;;;;;;;18.94;40.21;100362.06;5053475;28;20069;-60
2023/04/30 14:45:49;;;;;;;2.67;1.60;;;;;;;19.30;39.32;100354.94;5053165;28;20039;-60
2023/04/30 14:48:15;;;;;;;1.45;1.23;;;;;;;19.17;40.68;100353.25;5053030;28;20406;-63
2023/04/30 14:50:40;;;;;;;1.95;1.45;;;;;;;18.76;40.58;100348.53;5053167;28;20120;-63
2023/04/30 14:53:05;;;;;;;1.40;1.30;;;;;;;19.15;40.01;100347.25;5053425;28;20090;-62
2023/04/30 14:55:31;;;;;;;1.77;1.52;;;;;;;19.05;40.48;100352.38;5053146;28;20406;-63
2023/04/30 14:57:58;;;;;;;2.83;1.30;;;;;;;19.20;39.74;100356.34;5052881;28;20037;-61
2023/04/30 15:00:23;;;;;;;1.25;1.10;;;;;;;18.97;40.02;100350.78;5053233;28;20048;-60
2023/04/30 15:02:49;;;;;;;1.60;1.40;;;;;;;19.17;39.11;100343.28;5053079;28;20037;-62
2023/04/30 15:05:14;;;;;;;2.38;1.50;;;;;;;19.06;40.02;100349.44;5051981;28;20045;-60
2023/04/30 15:07:40;;;;;;;3.60;1.73;;;;;;;18.85;40.85;100341.81;5052683;28;20036;-61
2023/04/30 15:10:06;;;;;;;1.65;1.23;;;;;;;18.85;41.09;100337.25;5052914;28;20045;-59
2023/04/30 15:12:33;;;;;;;1.15;1.02;;;;;;;18.85;40.64;100347.22;5052987;28;20051;-59
2023/04/30 15:14:59;;;;;;;1.97;1.67;;;;;;;18.86;41.17;100346.16;5052828;28;20060;-61
2023/04/30 15:17:25;;;;;;;1.90;1.48;;;;;;;18.85;40.98;100339.94;5052439;28;20307;-61
2023/04/30 15:19:50;;;;;;;4.07;2.40;;;;;;;18.84;41.80;100340.97;5052744;28;20037;-61
2023/04/30 15:22:16;;;;;;;9.57;6.32;;;;;;;18.89;41.98;100337.59;5052670;28;20060;-63
2023/04/30 15:24:41;;;;;;;2.25;1.92;;;;;;;18.88;42.10;100338.66;5052694;28;20033;-62
2023/04/30 15:27:06;;;;;;;2.35;2.00;;;;;;;18.81;42.50;100335.22;5052253;28;20042;-60
2023/04/30 15:29:32;;;;;;;3.08;2.40;;;;;;;18.76;41.44;100337.75;5052590;28;20047;-61
2023/04/30 15:31:58;;;;;;;3.00;1.60;;;;;;;18.73;41.61;100330.94;5052571;28;20116;-61
2023/04/30 15:34:24;;;;;;;2.00;1.48;;;;;;;18.77;40.96;100331.31;5052447;28;20510;-62
2023/04/30 15:36:50;;;;;;;4.20;2.25;;;;;;;18.75;41.70;100330.72;5052292;28;20127;-61
2023/04/30 15:39:16;;;;;;;2.85;2.17;;;;;;;18.68;41.99;100330.78;5052384;28;20041;-59
2023/04/30 15:41:43;;;;;;;2.50;1.50;;;;;;;18.84;41.23;100332.06;5052496;28;20045;-62
2023/04/30 15:44:09;;;;;;;3.10;2.05;;;;;;;18.78;41.47;100324.84;5052372;28;20052;-59